KGMU/GMU METAR and TAF weather

Enter ICAO airport designator
Station Type Date Time Source
KGMU METAR 2019/04/18 21:53 UTC NOAA

KGMU 182153Z 17012KT 10SM SCT048 SCT060 BKN075 25/14 A2989 RMK AO2 SLP113 T02500144


Station Type Date Time Source
KGMU Decoded METAR 2019/04/18 21:53 UTC NOAA

GREENVILLE DOWNTOWN AIRPORT , SC, United States (KGMU) 34-51N 82-21W 315M
Apr 18, 2019 - 05:53 PM EDT / 2019.04.18 2153 UTC
Wind: from the S (170 degrees) at 14 MPH (12 KT):0
Visibility: 10 mile(s):0
Sky conditions: mostly cloudy
Temperature: 77.0 F (25.0 C)
Dew Point: 57.9 F (14.4 C)
Relative Humidity: 51%
Pressure (altimeter): 29.89 in. Hg (1012 hPa)
ob: KGMU 182153Z 17012KT 10SM SCT048 SCT060 BKN075 25/14 A2989 RMK AO2 SLP113 T02500144
cycle: 22

Station Type Date Time Source
KGMU TAF 2019/04/18 18:42 UTC NOAA

TAF KGMU 181738Z 1818/1918 20008G16KT P6SM SCT035 BKN045
FM182200 18010KT P6SM SCT045 BKN070
FM190500 17010G19KT P6SM VCSH BKN022
FM191000 17012G20KT P6SM SHRA OVC013
FM191500 18013KT 6SM +SHRA BR OVC016 PROB30 1915/1918 3SM +TSRA BR OVC008CB

Example: see airport list